Notice: Undefined index: name in /var/www/html/metar_load_funct.php on line 61

Notice: Undefined index: humidity_percent in /var/www/html/metar_load_funct.php on line 103
Weather34 Metar Aviation Weather Data Popup
15°C Temp
'.PHP_EOL;
12°C Dauwpunt
% Vochtigheid
Temperatuur
8 KM/H
5 MPH
4 KTS
240°
West Zuid
West

Wind Snelheid
Grotendeels bewolkt
Luchtdruk 1019.92 (hPa)- 30.12 (in)
Zicht 6.2 (mi) - 10 (km)

Huidig weer
EHLW
Locatie 30(km)
Metar:
EHLW 161025Z AUTO 24004KT 160V260 9999 BKN037 OVC042 15/12 Q1020 BLU 23006KT 9999 FEW002 SCT004 BKN015

Notice: Undefined offset: 1 in /var/www/html/metar_popup.php on line 285

Notice: Undefined offset: 1 in /var/www/html/metar_popup.php on line 287

Warning: gmmktime() expects parameter 1 to be long, string given in /var/www/html/metar_popup.php on line 288
Thu 1st January 01:00 am

Vliegveld
  Metar Aviation API Data Provided by https://www.checkwx.com/